createdAt,value
2023-08-17T00:02:29.663Z,3.880
2023-08-17T00:03:30.385Z,3.280
2023-08-17T00:05:30.118Z,2.800
2023-08-17T00:06:30.642Z,2.951
2023-08-17T00:07:30.092Z,3.946
2023-08-17T00:08:30.267Z,3.240
2023-08-17T00:09:29.762Z,1.440
2023-08-17T00:10:30.208Z,2.080
2023-08-17T00:11:29.683Z,2.000
2023-08-17T00:12:30.176Z,2.440
2023-08-17T00:13:30.650Z,1.338
2023-08-17T00:14:30.083Z,0.610
2023-08-17T00:15:30.538Z,0.039
2023-08-17T00:17:30.225Z,0.000
2023-08-17T00:19:30.331Z,0.800
2023-08-17T00:20:29.820Z,2.160
2023-08-17T00:21:30.300Z,2.160
2023-08-17T00:24:29.892Z,2.560
2023-08-17T00:25:30.324Z,2.040
2023-08-17T00:26:29.867Z,2.200
2023-08-17T00:27:30.790Z,2.440
2023-08-17T00:28:30.286Z,3.120
2023-08-17T00:30:30.270Z,5.560
2023-08-17T00:31:29.762Z,7.080
2023-08-17T00:32:30.495Z,7.480
2023-08-17T00:33:30.024Z,8.080
2023-08-17T00:34:30.478Z,8.200
2023-08-17T00:35:29.882Z,8.080
2023-08-17T00:36:30.326Z,5.760
2023-08-17T00:38:29.650Z,5.440
2023-08-17T00:39:30.146Z,7.120
2023-08-17T00:40:30.687Z,6.531
2023-08-17T00:44:30.044Z,4.880
2023-08-17T00:45:30.763Z,4.200
2023-08-17T00:46:30.450Z,4.000
2023-08-17T00:49:30.159Z,1.993
2023-08-17T00:50:30.660Z,1.967
2023-08-17T00:51:30.266Z,1.871
2023-08-17T00:54:30.600Z,2.046
2023-08-17T00:55:30.071Z,3.620
2023-08-17T00:56:30.443Z,1.920
2023-08-17T00:58:30.582Z,2.243
2023-08-17T00:59:36.530Z,1.017
2023-08-17T01:01:30.426Z,2.680
2023-08-17T01:02:29.789Z,2.800
2023-08-17T01:03:30.304Z,3.000
2023-08-17T01:06:29.774Z,3.440
2023-08-17T01:07:30.221Z,3.240
2023-08-17T01:09:30.152Z,3.000
2023-08-17T01:10:30.633Z,2.085
2023-08-17T01:11:30.016Z,1.749
2023-08-17T01:12:30.493Z,0.200
2023-08-17T01:14:30.431Z,2.120
2023-08-17T01:15:29.897Z,1.440
2023-08-17T01:17:30.613Z,1.640
2023-08-17T01:18:30.266Z,1.320
2023-08-17T01:19:30.342Z,0.560
2023-08-17T01:20:29.737Z,1.160
2023-08-17T01:21:30.227Z,1.000
2023-08-17T01:22:29.642Z,1.680
2023-08-17T01:23:30.049Z,1.720
2023-08-17T01:24:30.513Z,1.928
2023-08-17T01:25:30.108Z,1.708
2023-08-17T01:26:30.635Z,1.456
2023-08-17T01:27:30.740Z,2.400
2023-08-17T01:29:30.616Z,1.220
2023-08-17T01:30:30.107Z,0.529
2023-08-17T01:31:30.516Z,1.280
2023-08-17T01:33:29.915Z,1.480
2023-08-17T01:34:30.384Z,1.600
2023-08-17T01:35:29.976Z,2.120
2023-08-17T01:36:30.415Z,1.560
2023-08-17T01:37:30.189Z,1.160
2023-08-17T01:38:30.598Z,1.889
2023-08-17T01:39:30.011Z,1.831
2023-08-17T01:40:30.492Z,0.560
2023-08-17T01:41:29.858Z,1.400
2023-08-17T01:42:30.475Z,2.640
2023-08-17T01:43:29.882Z,3.080
2023-08-17T01:44:30.334Z,3.120
2023-08-17T01:47:31.601Z,2.280
2023-08-17T01:48:30.181Z,2.120
2023-08-17T01:50:30.396Z,3.120
2023-08-17T01:52:30.275Z,2.600
2023-08-17T01:53:29.847Z,2.400
2023-08-17T01:54:30.382Z,2.960
2023-08-17T01:57:30.070Z,1.840
2023-08-17T01:58:30.547Z,2.282
2023-08-17T01:59:29.961Z,2.766
2023-08-17T02:00:30.527Z,2.040
2023-08-17T02:01:30.119Z,2.240
2023-08-17T02:02:30.698Z,2.518
2023-08-17T02:05:29.688Z,4.360
2023-08-17T02:06:30.290Z,3.720
2023-08-17T02:07:30.250Z,4.560
2023-08-17T02:08:29.684Z,6.560
2023-08-17T02:09:30.812Z,4.880
2023-08-17T02:11:29.751Z,2.440
2023-08-17T02:12:30.210Z,2.800
2023-08-17T02:13:30.628Z,1.141
2023-08-17T02:14:30.061Z,2.563
2023-08-17T02:15:30.591Z,2.439
2023-08-17T02:18:29.875Z,1.360
2023-08-17T02:19:30.218Z,1.520
2023-08-17T02:20:29.686Z,1.760
2023-08-17T02:21:30.120Z,0.680
2023-08-17T02:22:30.581Z,0.080
2023-08-17T02:24:30.604Z,2.282
2023-08-17T02:25:30.040Z,3.742
2023-08-17T02:27:30.483Z,5.200
2023-08-17T02:28:29.959Z,4.040
2023-08-17T02:29:30.458Z,3.400
2023-08-17T02:30:30.168Z,2.200
2023-08-17T02:32:30.334Z,5.160
2023-08-17T02:33:30.026Z,3.600
2023-08-17T02:34:30.472Z,4.040
2023-08-17T02:36:29.662Z,0.920
2023-08-17T02:37:30.426Z,0.120
2023-08-17T02:39:30.582Z,2.754
2023-08-17T02:40:30.043Z,3.092
2023-08-17T02:41:30.499Z,4.289
2023-08-17T02:42:30.069Z,4.719
2023-08-17T02:43:30.514Z,3.226
2023-08-17T02:45:30.469Z,1.320
2023-08-17T02:46:29.961Z,1.040
2023-08-17T02:47:30.415Z,2.840
2023-08-17T02:50:29.856Z,0.840
2023-08-17T02:51:30.615Z,2.960
2023-08-17T02:52:30.045Z,3.160
2023-08-17T02:53:30.771Z,3.240
2023-08-17T02:54:30.207Z,3.080
2023-08-17T02:55:29.675Z,3.400
2023-08-17T02:56:30.126Z,2.400
2023-08-17T02:57:30.584Z,2.282
2023-08-17T03:00:29.964Z,0.880
2023-08-17T03:01:30.465Z,2.720
2023-08-17T03:02:30.117Z,2.600
2023-08-17T03:03:30.178Z,1.640
2023-08-17T03:04:30.003Z,0.560
2023-08-17T03:05:30.482Z,1.160
2023-08-17T03:06:29.983Z,1.240
2023-08-17T03:07:30.422Z,0.840
2023-08-17T03:10:29.910Z,0.160
2023-08-17T03:11:29.707Z,1.800
2023-08-17T03:12:30.158Z,3.120
2023-08-17T03:13:30.600Z,3.856
2023-08-17T03:14:30.029Z,2.034
2023-08-17T03:15:30.659Z,1.000
2023-08-17T03:16:30.376Z,1.680
2023-08-17T03:17:30.199Z,2.400
2023-08-17T03:20:29.771Z,1.360
2023-08-17T03:21:30.275Z,0.200
2023-08-17T03:22:29.783Z,0.000
2023-08-17T03:23:30.282Z,0.400
2023-08-17T03:26:29.756Z,0.880
2023-08-17T03:27:30.731Z,1.280
2023-08-17T03:28:30.231Z,1.280
2023-08-17T03:30:30.357Z,2.160
2023-08-17T03:31:30.047Z,2.840
2023-08-17T03:32:30.469Z,3.040
2023-08-17T03:33:30.022Z,1.600
2023-08-17T03:34:30.562Z,0.000
2023-08-17T03:35:30.247Z,1.261
2023-08-17T03:38:30.154Z,0.520
2023-08-17T03:39:29.898Z,2.200
2023-08-17T03:40:30.290Z,2.560
2023-08-17T03:41:29.733Z,2.160
2023-08-17T03:42:30.279Z,2.240
2023-08-17T03:43:29.792Z,2.680
2023-08-17T03:44:30.330Z,1.520
2023-08-17T03:45:29.687Z,3.200
2023-08-17T03:46:30.465Z,1.920
2023-08-17T03:47:30.366Z,1.560
2023-08-17T03:50:29.896Z,0.240
2023-08-17T03:51:30.545Z,1.967
2023-08-17T03:52:29.997Z,0.325
2023-08-17T03:53:30.493Z,0.200
2023-08-17T03:54:29.908Z,0.720
2023-08-17T03:55:30.384Z,1.760
2023-08-17T03:58:30.143Z,2.120
2023-08-17T03:59:30.583Z,1.141
2023-08-17T04:00:30.162Z,3.376
2023-08-17T04:03:30.246Z,3.254
2023-08-17T04:04:29.797Z,2.120
2023-08-17T04:05:30.403Z,1.840
2023-08-17T04:06:29.843Z,0.200
2023-08-17T04:07:30.863Z,1.720
2023-08-17T04:09:29.783Z,2.560
2023-08-17T04:10:30.223Z,2.320
2023-08-17T04:11:29.811Z,0.160
2023-08-17T04:12:30.296Z,0.000
2023-08-17T04:14:29.674Z,1.880
2023-08-17T04:15:30.235Z,1.640
2023-08-17T04:16:29.723Z,1.000
2023-08-17T04:17:30.674Z,0.480
2023-08-17T04:18:30.702Z,1.220
2023-08-17T04:19:30.408Z,0.569
2023-08-17T04:20:30.002Z,0.280
2023-08-17T04:21:30.630Z,2.120
2023-08-17T04:22:30.095Z,3.120
2023-08-17T04:23:30.545Z,1.770
2023-08-17T04:24:29.940Z,1.790
2023-08-17T04:25:30.592Z,2.080
2023-08-17T04:26:29.993Z,1.160
2023-08-17T04:27:30.558Z,0.354
2023-08-17T04:30:30.101Z,0.000
2023-08-17T04:31:30.709Z,0.669
2023-08-17T04:32:30.462Z,1.058
2023-08-17T04:33:30.163Z,2.160
2023-08-17T04:34:30.675Z,1.889
2023-08-17T04:35:30.143Z,3.254
2023-08-17T04:36:29.668Z,3.040
2023-08-17T04:37:30.596Z,3.240
2023-08-17T04:38:30.073Z,4.240
2023-08-17T04:39:30.472Z,4.280
2023-08-17T04:42:30.180Z,1.708
2023-08-17T04:43:30.695Z,0.944
2023-08-17T04:44:30.177Z,3.946
2023-08-17T04:45:30.730Z,3.502
2023-08-17T04:47:30.490Z,0.840
2023-08-17T04:50:30.195Z,1.464
2023-08-17T04:51:30.736Z,0.315
2023-08-17T04:52:30.108Z,1.586
2023-08-17T04:53:30.504Z,2.640
2023-08-17T04:54:29.956Z,3.360
2023-08-17T04:55:30.452Z,3.280
2023-08-17T04:56:29.978Z,0.560
2023-08-17T04:57:30.404Z,0.960
2023-08-17T04:59:29.650Z,2.080
2023-08-17T05:00:30.066Z,1.960
2023-08-17T05:01:30.636Z,1.377
2023-08-17T05:02:30.232Z,1.261
2023-08-17T05:03:35.522Z,1.360
2023-08-17T05:04:30.316Z,1.480
2023-08-17T05:06:30.144Z,2.480
2023-08-17T05:07:30.999Z,2.400
2023-08-17T05:08:30.442Z,2.034
2023-08-17T05:09:29.926Z,2.920
2023-08-17T05:10:30.439Z,2.840
2023-08-17T05:11:30.033Z,2.560
2023-08-17T05:13:30.190Z,1.440
2023-08-17T05:14:30.638Z,2.046
2023-08-17T05:15:30.097Z,1.220
2023-08-17T05:17:30.567Z,1.960
2023-08-17T05:18:30.087Z,3.000
2023-08-17T05:19:30.548Z,2.439
2023-08-17T05:20:30.069Z,3.783
2023-08-17T05:21:30.509Z,2.479
2023-08-17T05:24:29.933Z,3.200
2023-08-17T05:25:30.340Z,3.080
2023-08-17T05:26:29.786Z,2.840
2023-08-17T05:27:30.747Z,2.920
2023-08-17T05:28:30.128Z,2.720
2023-08-17T05:29:30.591Z,2.361
2023-08-17T05:30:30.116Z,1.831
2023-08-17T05:31:30.596Z,2.675
2023-08-17T05:33:29.786Z,1.720
2023-08-17T05:34:30.245Z,2.600
2023-08-17T05:35:30.687Z,1.377
2023-08-17T05:36:30.122Z,1.383
2023-08-17T05:37:30.955Z,0.708
2023-08-17T05:38:30.357Z,0.000
2023-08-17T05:40:30.138Z,0.080
2023-08-17T05:41:30.523Z,0.000
2023-08-17T05:42:29.929Z,0.000
2023-08-17T05:43:30.894Z,1.652
2023-08-17T05:44:30.516Z,0.814
2023-08-17T05:45:30.071Z,0.000
2023-08-17T05:46:29.776Z,0.280
2023-08-17T05:49:29.891Z,0.000
2023-08-17T05:50:30.364Z,0.200
2023-08-17T05:51:29.820Z,0.080
2023-08-17T05:52:30.254Z,0.320
2023-08-17T05:54:30.135Z,0.480
2023-08-17T05:55:30.670Z,0.944
2023-08-17T05:56:30.184Z,1.383
2023-08-17T05:57:30.603Z,0.708
2023-08-17T05:59:29.987Z,1.120
2023-08-17T06:00:30.535Z,0.040
2023-08-17T06:01:30.111Z,0.360
2023-08-17T06:02:30.587Z,0.315
2023-08-17T06:03:30.609Z,0.651
2023-08-17T06:04:30.325Z,1.840
2023-08-17T06:05:29.770Z,2.320
2023-08-17T06:06:30.203Z,1.880
2023-08-17T06:07:30.222Z,2.080
2023-08-17T06:08:29.629Z,0.840
2023-08-17T06:09:30.094Z,0.400
2023-08-17T06:10:29.973Z,1.680
2023-08-17T06:11:30.459Z,1.760
2023-08-17T06:12:29.916Z,0.080
2023-08-17T06:13:30.311Z,1.360
2023-08-17T06:15:30.151Z,5.000
2023-08-17T06:16:29.854Z,4.480
2023-08-17T06:17:31.109Z,2.243
2023-08-17T06:18:29.811Z,3.742
2023-08-17T06:19:30.309Z,5.480
2023-08-17T06:22:29.715Z,6.680
2023-08-17T06:23:30.365Z,5.960
2023-08-17T06:24:29.803Z,5.400
2023-08-17T06:25:30.369Z,6.840
2023-08-17T06:26:29.786Z,7.080
2023-08-17T06:27:30.762Z,5.760
2023-08-17T06:28:30.226Z,4.240
2023-08-17T06:29:30.630Z,4.839
2023-08-17T06:32:30.159Z,4.440
2023-08-17T06:33:29.854Z,2.880
2023-08-17T06:34:30.325Z,3.360
2023-08-17T06:35:30.403Z,3.440
2023-08-17T06:37:30.514Z,6.880
2023-08-17T06:38:29.951Z,5.160
2023-08-17T06:39:30.965Z,2.360
2023-08-17T06:42:30.343Z,4.360
2023-08-17T06:43:29.754Z,3.000
2023-08-17T06:44:30.211Z,5.960
2023-08-17T06:45:29.655Z,4.480
2023-08-17T06:46:30.262Z,5.640
2023-08-17T06:47:30.645Z,3.640
2023-08-17T06:49:29.769Z,4.400
2023-08-17T06:50:30.203Z,4.960
2023-08-17T06:51:30.627Z,5.430
2023-08-17T06:52:30.055Z,7.485
2023-08-17T06:53:30.462Z,4.840
2023-08-17T06:56:31.448Z,7.120
2023-08-17T06:58:29.764Z,2.960
2023-08-17T06:59:30.291Z,6.720
2023-08-17T07:00:29.716Z,5.840
2023-08-17T07:01:30.372Z,8.200
2023-08-17T07:02:50.950Z,7.480
2023-08-17T07:03:29.805Z,8.200
2023-08-17T07:04:30.619Z,4.760
2023-08-17T07:05:30.618Z,6.216
2023-08-17T07:06:30.053Z,3.946
2023-08-17T07:07:30.791Z,8.960
2023-08-17T07:08:30.219Z,6.040
2023-08-17T07:11:29.764Z,4.160
2023-08-17T07:12:30.201Z,3.840
2023-08-17T07:13:30.245Z,3.560
2023-08-17T07:14:29.905Z,2.040
2023-08-17T07:15:30.288Z,3.800
2023-08-17T07:16:29.787Z,5.440
2023-08-17T07:17:31.194Z,2.560
2023-08-17T07:19:45.588Z,4.840
2023-08-17T07:20:30.340Z,6.200
2023-08-17T07:21:29.886Z,3.920
2023-08-17T07:22:30.417Z,3.360
2023-08-17T07:23:29.847Z,3.560
2023-08-17T07:24:30.341Z,3.560
2023-08-17T07:25:29.823Z,0.920
2023-08-17T07:26:30.318Z,0.520
2023-08-17T07:27:30.456Z,3.800
2023-08-17T07:29:30.360Z,4.800
2023-08-17T07:30:29.867Z,4.920
2023-08-17T07:31:30.428Z,3.160
2023-08-17T07:34:30.660Z,4.407
2023-08-17T07:35:30.109Z,3.742
2023-08-17T07:36:30.571Z,4.289
2023-08-17T07:39:30.553Z,4.640
2023-08-17T07:40:30.067Z,4.960
2023-08-17T07:41:31.696Z,6.295
2023-08-17T07:44:29.883Z,4.000
2023-08-17T07:45:30.307Z,2.760
2023-08-17T07:46:30.069Z,2.440
2023-08-17T07:47:31.768Z,4.289
2023-08-17T07:48:29.789Z,7.200
2023-08-17T07:49:35.333Z,7.280
2023-08-17T07:50:29.890Z,4.360
2023-08-17T07:51:30.310Z,3.680
2023-08-17T07:52:29.684Z,3.600
2023-08-17T07:53:30.123Z,3.960
2023-08-17T07:54:30.564Z,4.092
2023-08-17T07:55:30.100Z,3.173
2023-08-17T07:56:30.602Z,4.761
2023-08-17T07:58:30.001Z,4.920
2023-08-17T07:59:30.449Z,4.120
2023-08-17T08:00:29.854Z,3.640
2023-08-17T08:01:30.424Z,6.080
2023-08-17T08:04:30.466Z,3.360
2023-08-17T08:05:29.929Z,5.040
2023-08-17T08:06:29.958Z,2.920
2023-08-17T08:07:30.843Z,5.920
2023-08-17T08:08:30.293Z,9.040
2023-08-17T08:09:29.789Z,6.760
2023-08-17T08:10:30.343Z,5.680
2023-08-17T08:11:29.781Z,6.680
2023-08-17T08:12:30.318Z,7.680
2023-08-17T08:15:29.939Z,6.360
2023-08-17T08:16:30.662Z,4.485
2023-08-17T08:17:30.961Z,3.620
2023-08-17T08:18:30.075Z,4.360
2023-08-17T08:19:30.810Z,4.761
2023-08-17T08:21:29.860Z,6.160
2023-08-17T08:22:30.319Z,4.640
2023-08-17T08:23:29.794Z,4.960
2023-08-17T08:24:37.913Z,7.400
2023-08-17T08:25:30.307Z,4.000
2023-08-17T08:26:29.730Z,4.880
2023-08-17T08:27:30.161Z,5.040
2023-08-17T08:28:30.226Z,4.760
2023-08-17T08:29:30.625Z,4.289
2023-08-17T08:30:30.084Z,4.759
2023-08-17T08:31:30.582Z,5.941
2023-08-17T08:32:33.148Z,3.254
2023-08-17T08:34:30.286Z,2.960
2023-08-17T08:35:29.730Z,2.560
2023-08-17T08:36:30.191Z,5.880
2023-08-17T08:37:30.277Z,5.720
2023-08-17T08:40:30.022Z,5.360
2023-08-17T08:41:30.482Z,4.280
2023-08-17T08:42:29.957Z,2.800
2023-08-17T08:43:30.541Z,4.720
2023-08-17T08:44:29.979Z,6.960
2023-08-17T08:45:30.591Z,6.800
2023-08-17T08:47:30.032Z,4.400
2023-08-17T08:48:29.911Z,7.120
2023-08-17T08:49:30.374Z,1.880
2023-08-17T08:50:30.059Z,5.640
2023-08-17T08:51:30.585Z,6.020
2023-08-17T08:52:30.016Z,5.898
2023-08-17T08:54:30.162Z,4.108
2023-08-17T08:55:30.489Z,2.560
2023-08-17T08:56:29.836Z,3.640
2023-08-17T08:57:30.751Z,4.640
2023-08-17T08:58:30.343Z,5.200
2023-08-17T09:00:30.392Z,5.080
2023-08-17T09:01:29.958Z,6.360
2023-08-17T09:03:30.165Z,4.600
2023-08-17T09:04:29.646Z,2.120
2023-08-17T09:05:30.501Z,3.160
2023-08-17T09:06:30.076Z,5.160
2023-08-17T09:07:30.551Z,5.548
2023-08-17T09:09:30.296Z,4.320
2023-08-17T09:10:38.388Z,2.960
2023-08-17T09:12:41.059Z,5.288
2023-08-17T09:13:29.849Z,4.520
2023-08-17T09:14:30.258Z,7.160
2023-08-17T09:15:29.706Z,3.520
2023-08-17T09:16:30.309Z,6.080
2023-08-17T09:19:29.973Z,7.078
2023-08-17T09:20:30.491Z,6.520
2023-08-17T09:21:30.500Z,3.040
2023-08-17T09:22:29.996Z,6.200
2023-08-17T09:23:30.415Z,3.040
2023-08-17T09:25:30.387Z,3.400
2023-08-17T09:26:30.174Z,4.680
2023-08-17T09:27:30.172Z,5.480
2023-08-17T09:28:33.316Z,4.013
2023-08-17T09:29:29.732Z,2.278
2023-08-17T09:30:30.491Z,4.640
2023-08-17T09:31:30.241Z,4.000
2023-08-17T09:32:29.977Z,2.600
2023-08-17T09:33:29.889Z,6.240
2023-08-17T09:34:30.308Z,5.240
2023-08-17T09:35:32.012Z,4.920
2023-08-17T09:37:30.016Z,2.760
2023-08-17T09:38:30.491Z,0.520
2023-08-17T09:39:29.858Z,1.440
2023-08-17T09:40:30.266Z,5.440
2023-08-17T09:41:32.165Z,3.320
2023-08-17T09:43:30.223Z,2.800
2023-08-17T09:44:30.101Z,1.760
2023-08-17T09:45:30.512Z,3.880
2023-08-17T09:46:29.979Z,2.400
2023-08-17T09:50:29.933Z,8.095
2023-08-17T09:51:30.593Z,6.280
2023-08-17T09:52:30.870Z,6.840
2023-08-17T09:54:30.084Z,3.520
2023-08-17T09:55:30.528Z,5.840
2023-08-17T09:56:29.993Z,8.760
2023-08-17T09:57:30.652Z,8.813
2023-08-17T09:58:32.046Z,4.800
2023-08-17T10:00:30.579Z,6.200
2023-08-17T10:01:30.647Z,6.040
2023-08-17T10:02:30.249Z,6.680
2023-08-17T10:05:30.602Z,5.329
2023-08-17T10:06:30.248Z,9.120
2023-08-17T10:07:33.311Z,8.320
2023-08-17T10:08:30.450Z,7.960
2023-08-17T10:09:30.261Z,9.640
2023-08-17T10:10:29.783Z,3.680
2023-08-17T10:11:30.225Z,2.960
2023-08-17T10:12:30.398Z,4.880
2023-08-17T10:13:30.351Z,6.200
2023-08-17T10:14:29.808Z,8.240
2023-08-17T10:15:30.263Z,3.800
2023-08-17T10:16:30.185Z,4.920
2023-08-17T10:17:29.842Z,3.720
2023-08-17T10:18:30.539Z,3.541
2023-08-17T10:19:29.986Z,4.800
2023-08-17T10:20:30.556Z,4.643
2023-08-17T10:23:30.289Z,6.720
2023-08-17T10:24:30.028Z,4.000
2023-08-17T10:25:30.102Z,4.000
2023-08-17T10:26:30.715Z,4.643
2023-08-17T10:27:30.507Z,5.085
2023-08-17T10:29:30.476Z,11.320
2023-08-17T10:30:29.996Z,8.520
2023-08-17T10:31:30.545Z,1.360
2023-08-17T10:32:30.513Z,0.920
2023-08-17T10:33:30.474Z,1.480
2023-08-17T10:34:30.013Z,7.440
2023-08-17T10:35:30.421Z,4.200
2023-08-17T10:36:30.081Z,3.480
2023-08-17T10:37:30.583Z,6.374
2023-08-17T10:38:29.978Z,4.597
2023-08-17T10:39:33.891Z,4.120
2023-08-17T10:41:29.942Z,6.440
2023-08-17T10:42:30.866Z,5.080
2023-08-17T10:44:30.291Z,5.400
2023-08-17T10:45:37.176Z,3.920
2023-08-17T10:46:35.375Z,6.964
2023-08-17T10:47:35.175Z,4.475
2023-08-17T10:49:30.174Z,3.960
2023-08-17T10:50:30.626Z,4.446
2023-08-17T10:51:30.044Z,3.905
2023-08-17T10:52:30.891Z,4.440
2023-08-17T10:54:30.008Z,2.520
2023-08-17T10:55:30.614Z,1.298
2023-08-17T10:56:30.105Z,7.119
2023-08-17T10:57:30.603Z,4.957
2023-08-17T10:58:30.058Z,7.078
2023-08-17T10:59:30.612Z,6.256
2023-08-17T11:02:33.000Z,7.240
2023-08-17T11:03:30.669Z,3.783
2023-08-17T11:04:35.262Z,3.320
2023-08-17T11:05:34.094Z,5.440
2023-08-17T11:07:30.523Z,5.200
2023-08-17T11:08:29.991Z,4.280
2023-08-17T11:09:32.272Z,6.600
2023-08-17T11:10:30.001Z,4.280
2023-08-17T11:11:29.663Z,4.840
2023-08-17T11:12:30.447Z,7.320
2023-08-17T11:13:30.121Z,7.360
2023-08-17T11:15:30.150Z,4.360
2023-08-17T11:17:29.802Z,1.400
2023-08-17T11:18:30.447Z,2.480
2023-08-17T11:19:29.903Z,6.160
2023-08-17T11:20:30.370Z,3.960
2023-08-17T11:21:29.869Z,7.080
2023-08-17T11:22:30.651Z,6.600
2023-08-17T11:23:30.508Z,6.280
2023-08-17T11:25:35.565Z,5.351
2023-08-17T11:26:35.571Z,8.217
2023-08-17T11:28:29.922Z,4.960
2023-08-17T11:29:30.317Z,3.960
2023-08-17T11:30:29.702Z,1.440
2023-08-17T11:31:30.185Z,7.600
2023-08-17T11:32:30.339Z,9.720
2023-08-17T11:33:30.376Z,6.920
2023-08-17T11:34:29.816Z,5.200
2023-08-17T11:35:30.258Z,4.040
2023-08-17T11:36:29.741Z,1.480
2023-08-17T11:37:30.346Z,4.160
2023-08-17T11:38:30.021Z,5.040
2023-08-17T11:39:30.625Z,2.872
2023-08-17T11:42:30.287Z,2.440
2023-08-17T11:43:30.244Z,5.040
2023-08-17T11:44:29.756Z,4.840
2023-08-17T11:45:32.425Z,6.280
2023-08-17T11:46:30.420Z,3.560
2023-08-17T11:47:35.001Z,6.120
2023-08-17T11:48:36.751Z,6.531
2023-08-17T11:49:29.915Z,6.224
2023-08-17T11:50:30.141Z,3.000
2023-08-17T11:51:30.610Z,4.761
2023-08-17T11:52:30.357Z,8.054
2023-08-17T11:53:30.192Z,5.960
2023-08-17T11:54:30.026Z,4.480
2023-08-17T11:55:30.503Z,2.960
2023-08-17T11:56:29.934Z,4.640
2023-08-17T11:57:30.439Z,5.320
2023-08-17T12:00:30.159Z,1.960
2023-08-17T12:01:30.705Z,3.187
2023-08-17T12:02:30.577Z,5.207
2023-08-17T12:03:30.514Z,2.920
2023-08-17T12:04:30.647Z,3.280
2023-08-17T12:05:30.075Z,6.240
2023-08-17T12:06:30.566Z,3.777
2023-08-17T12:07:30.088Z,4.719
2023-08-17T12:09:30.537Z,7.760
2023-08-17T12:10:29.986Z,6.320
2023-08-17T12:11:30.504Z,4.920
2023-08-17T12:13:30.000Z,5.040
2023-08-17T12:14:30.398Z,3.760
2023-08-17T12:15:29.682Z,3.440
2023-08-17T12:16:30.479Z,3.520
2023-08-17T12:18:29.797Z,6.000
2023-08-17T12:19:30.508Z,3.320
2023-08-17T12:20:29.970Z,6.640
2023-08-17T12:21:30.184Z,4.400
2023-08-17T12:22:30.634Z,7.640
2023-08-17T12:24:29.903Z,5.040
2023-08-17T12:25:30.367Z,4.760
2023-08-17T12:26:30.216Z,5.400
2023-08-17T12:27:30.256Z,6.680
2023-08-17T12:28:29.820Z,9.040
2023-08-17T12:29:30.266Z,5.560
2023-08-17T12:30:30.161Z,2.880
2023-08-17T12:32:30.954Z,2.085
2023-08-17T12:33:29.697Z,2.766
2023-08-17T12:34:30.246Z,4.640
2023-08-17T12:35:29.750Z,3.680
2023-08-17T12:36:30.511Z,5.193
2023-08-17T12:39:30.181Z,3.640
2023-08-17T12:40:30.688Z,5.075
2023-08-17T12:41:30.209Z,5.532
2023-08-17T12:43:30.632Z,6.334
2023-08-17T12:44:30.122Z,7.037
2023-08-17T12:45:32.777Z,9.080
2023-08-17T12:47:34.517Z,3.560
2023-08-17T12:48:29.913Z,3.120
2023-08-17T12:49:30.505Z,6.280
2023-08-17T12:50:30.146Z,4.680
2023-08-17T12:51:30.598Z,8.223
2023-08-17T12:52:30.606Z,5.695
2023-08-17T12:54:29.645Z,9.200
2023-08-17T12:55:30.104Z,5.920
2023-08-17T12:56:30.594Z,8.656
2023-08-17T12:57:30.099Z,8.664
2023-08-17T12:59:30.311Z,9.560
2023-08-17T13:00:29.775Z,7.960
2023-08-17T13:01:30.492Z,7.520
2023-08-17T13:02:30.931Z,7.640
2023-08-17T13:04:29.782Z,4.960
2023-08-17T13:05:40.674Z,3.320
2023-08-17T13:06:43.833Z,7.360
2023-08-17T13:07:30.511Z,6.840
2023-08-17T13:08:30.640Z,6.649
2023-08-17T13:09:30.375Z,7.078
2023-08-17T13:10:29.812Z,5.160
2023-08-17T13:11:30.509Z,5.080
2023-08-17T13:12:30.506Z,4.320
2023-08-17T13:13:29.977Z,7.920
2023-08-17T13:14:30.407Z,5.120
2023-08-17T13:15:29.896Z,3.200
2023-08-17T13:16:30.471Z,4.440
2023-08-17T13:19:30.634Z,5.980
2023-08-17T13:20:30.117Z,6.305
2023-08-17T13:21:30.539Z,7.633
2023-08-17T13:23:29.918Z,6.320
2023-08-17T13:24:30.420Z,6.480
2023-08-17T13:25:29.865Z,3.440
2023-08-17T13:26:30.349Z,4.040
2023-08-17T13:27:30.576Z,2.754
2023-08-17T13:28:30.044Z,3.336
2023-08-17T13:29:30.602Z,2.600
2023-08-17T13:30:30.042Z,5.640
2023-08-17T13:31:30.579Z,5.390
2023-08-17T13:32:31.199Z,5.369
2023-08-17T13:34:29.756Z,7.320
2023-08-17T13:35:30.204Z,7.760
2023-08-17T13:36:29.766Z,5.440
2023-08-17T13:37:30.054Z,2.680
2023-08-17T13:38:30.540Z,4.480
2023-08-17T13:39:29.998Z,3.520
2023-08-17T13:40:30.528Z,2.600
2023-08-17T13:41:30.092Z,3.240
2023-08-17T13:42:30.885Z,3.816
2023-08-17T13:45:29.832Z,3.560
2023-08-17T13:46:29.948Z,3.760
2023-08-17T13:47:30.716Z,2.479
2023-08-17T13:49:30.075Z,3.254
2023-08-17T13:50:29.696Z,5.680
2023-08-17T13:51:30.355Z,5.760
2023-08-17T13:52:30.163Z,3.000
2023-08-17T13:53:29.939Z,4.520
2023-08-17T13:54:30.475Z,4.720
2023-08-17T13:55:30.065Z,5.080
2023-08-17T13:56:31.374Z,6.840
2023-08-17T13:59:30.425Z,3.240
2023-08-17T14:01:30.893Z,5.705
2023-08-17T14:02:31.716Z,5.247
2023-08-17T14:03:30.257Z,5.640
2023-08-17T14:04:30.488Z,5.480
2023-08-17T14:05:29.906Z,6.280
2023-08-17T14:06:30.746Z,7.000
2023-08-17T14:07:30.206Z,6.920
2023-08-17T14:08:29.901Z,4.680
2023-08-17T14:09:30.458Z,4.160
2023-08-17T14:10:39.237Z,4.640
2023-08-17T14:11:30.467Z,2.560
2023-08-17T14:12:30.449Z,4.080
2023-08-17T14:14:30.500Z,3.720
2023-08-17T14:15:30.268Z,2.720
2023-08-17T14:17:32.245Z,2.597
2023-08-17T14:18:30.129Z,5.451
2023-08-17T14:19:30.819Z,5.233
2023-08-17T14:20:30.614Z,6.305
2023-08-17T14:22:30.807Z,7.320
2023-08-17T14:23:29.912Z,7.440
2023-08-17T14:24:30.372Z,3.400
2023-08-17T14:25:29.996Z,2.400
2023-08-17T14:27:30.742Z,3.580
2023-08-17T14:28:30.499Z,4.881
2023-08-17T14:31:30.154Z,5.360
2023-08-17T14:32:32.764Z,2.600
2023-08-17T14:33:30.499Z,3.640
2023-08-17T14:34:29.897Z,3.040
2023-08-17T14:35:29.821Z,5.320
2023-08-17T14:36:30.609Z,3.816
2023-08-17T14:37:30.612Z,6.875
2023-08-17T14:38:32.425Z,6.080
2023-08-17T14:39:30.001Z,5.400
2023-08-17T14:40:29.950Z,3.360
2023-08-17T14:41:29.941Z,6.360
2023-08-17T14:42:30.729Z,3.160
2023-08-17T14:43:30.433Z,3.640
2023-08-17T14:46:30.323Z,4.520
2023-08-17T14:47:30.855Z,1.880
2023-08-17T14:48:30.421Z,1.720
2023-08-17T14:49:29.888Z,2.000
2023-08-17T14:50:30.379Z,4.640
2023-08-17T14:51:34.337Z,4.240
2023-08-17T14:52:33.663Z,3.760
2023-08-17T14:53:30.478Z,4.560
2023-08-17T14:54:30.934Z,5.520
2023-08-17T14:55:30.440Z,4.880
2023-08-17T14:56:30.283Z,5.160
2023-08-17T14:57:30.028Z,3.440
2023-08-17T15:00:33.165Z,3.400
2023-08-17T15:01:30.711Z,2.200
2023-08-17T15:02:32.001Z,1.840
2023-08-17T15:03:30.256Z,1.640
2023-08-17T15:04:30.292Z,2.200
2023-08-17T15:05:33.236Z,2.040
2023-08-17T15:06:35.595Z,2.560
2023-08-17T15:08:30.326Z,3.320
2023-08-17T15:09:29.996Z,3.200
2023-08-17T15:10:30.708Z,0.866
2023-08-17T15:12:29.910Z,2.120
2023-08-17T15:13:30.514Z,1.360
2023-08-17T15:14:30.138Z,2.120
2023-08-17T15:16:29.835Z,0.840
2023-08-17T15:17:29.940Z,2.040
2023-08-17T15:18:30.021Z,3.360
2023-08-17T15:19:41.005Z,3.580
2023-08-17T15:20:30.187Z,3.824
2023-08-17T15:21:29.932Z,2.720
2023-08-17T15:22:30.617Z,1.920
2023-08-17T15:23:30.237Z,2.720
2023-08-17T15:26:30.331Z,2.160
2023-08-17T15:27:30.076Z,3.680
2023-08-17T15:28:29.948Z,3.640
2023-08-17T15:29:29.820Z,5.920
2023-08-17T15:30:30.190Z,5.320
2023-08-17T15:31:29.997Z,5.920
2023-08-17T15:32:30.117Z,4.240
2023-08-17T15:34:30.657Z,4.249
2023-08-17T15:35:30.426Z,4.963
2023-08-17T15:38:30.293Z,7.241
2023-08-17T15:39:29.916Z,6.880
2023-08-17T15:40:30.634Z,5.862
2023-08-17T15:41:30.232Z,5.614
2023-08-17T15:42:30.419Z,5.760
2023-08-17T15:43:30.037Z,6.120
2023-08-17T15:44:30.736Z,5.548
2023-08-17T15:45:30.397Z,5.410
2023-08-17T15:48:30.276Z,6.840
2023-08-17T15:50:30.185Z,7.720
2023-08-17T15:51:30.639Z,7.672
2023-08-17T15:52:30.138Z,9.356
2023-08-17T15:54:36.998Z,22.160
2023-08-17T15:55:30.011Z,21.000
2023-08-17T15:56:30.441Z,28.040
2023-08-17T15:57:30.332Z,26.520
2023-08-17T15:58:30.322Z,30.560
2023-08-17T15:59:29.770Z,24.200
2023-08-17T16:00:30.248Z,32.600
2023-08-17T16:01:29.842Z,18.840
2023-08-17T16:03:31.021Z,19.475
2023-08-17T16:04:30.258Z,19.078
2023-08-17T16:06:30.228Z,16.120
2023-08-17T16:07:29.989Z,15.800